sensor_id;sensor_type;location;lat;lon;timestamp;P1;durP1;ratioP1;P2;durP2;ratioP2
68234;SDS011;55052;52.056;5.296;2022-07-29T00:00:57;2.20;;;1.42;;
68234;SDS011;55052;52.056;5.296;2022-07-29T00:03:24;6.45;;;1.35;;
68234;SDS011;55052;52.056;5.296;2022-07-29T00:05:51;3.83;;;1.38;;
68234;SDS011;55052;52.056;5.296;2022-07-29T00:08:19;5.95;;;1.40;;
68234;SDS011;55052;52.056;5.296;2022-07-29T00:10:46;2.22;;;1.20;;
68234;SDS011;55052;52.056;5.296;2022-07-29T00:13:13;2.75;;;1.30;;
68234;SDS011;55052;52.056;5.296;2022-07-29T00:15:40;4.68;;;1.60;;
68234;SDS011;55052;52.056;5.296;2022-07-29T00:18:06;5.18;;;1.27;;
68234;SDS011;55052;52.056;5.296;2022-07-29T00:20:33;2.53;;;1.40;;
68234;SDS011;55052;52.056;5.296;2022-07-29T00:23:00;4.40;;;1.70;;
68234;SDS011;55052;52.056;5.296;2022-07-29T00:25:27;5.38;;;1.50;;
68234;SDS011;55052;52.056;5.296;2022-07-29T00:27:53;5.30;;;1.50;;
68234;SDS011;55052;52.056;5.296;2022-07-29T00:30:20;4.53;;;1.73;;
68234;SDS011;55052;52.056;5.296;2022-07-29T00:32:47;4.13;;;1.48;;
68234;SDS011;55052;52.056;5.296;2022-07-29T00:35:13;5.28;;;1.90;;
68234;SDS011;55052;52.056;5.296;2022-07-29T00:38:00;3.15;;;1.33;;
68234;SDS011;55052;52.056;5.296;2022-07-29T00:40:27;6.15;;;1.60;;
68234;SDS011;55052;52.056;5.296;2022-07-29T00:42:54;2.47;;;1.30;;
68234;SDS011;55052;52.056;5.296;2022-07-29T00:45:21;3.03;;;1.35;;
68234;SDS011;55052;52.056;5.296;2022-07-29T00:47:50;6.47;;;1.52;;
68234;SDS011;55052;52.056;5.296;2022-07-29T00:50:17;2.42;;;1.30;;
68234;SDS011;55052;52.056;5.296;2022-07-29T00:52:44;2.72;;;1.40;;
68234;SDS011;55052;52.056;5.296;2022-07-29T00:55:12;4.28;;;1.70;;
68234;SDS011;55052;52.056;5.296;2022-07-29T00:57:41;5.80;;;1.50;;
68234;SDS011;55052;52.056;5.296;2022-07-29T01:00:10;2.08;;;1.30;;
68234;SDS011;55052;52.056;5.296;2022-07-29T01:02:39;7.15;;;1.65;;
68234;SDS011;55052;52.056;5.296;2022-07-29T01:05:06;5.38;;;1.45;;
68234;SDS011;55052;52.056;5.296;2022-07-29T01:07:34;1.83;;;1.30;;
68234;SDS011;55052;52.056;5.296;2022-07-29T01:10:05;5.65;;;1.77;;
68234;SDS011;55052;52.056;5.296;2022-07-29T01:12:34;4.85;;;1.60;;
68234;SDS011;55052;52.056;5.296;2022-07-29T01:15:04;5.32;;;1.60;;
68234;SDS011;55052;52.056;5.296;2022-07-29T01:17:43;3.00;;;1.48;;
68234;SDS011;55052;52.056;5.296;2022-07-29T01:25:44;3.20;;;1.42;;
68234;SDS011;55052;52.056;5.296;2022-07-29T01:31:25;5.65;;;1.67;;
68234;SDS011;55052;52.056;5.296;2022-07-29T01:34:05;2.75;;;1.38;;
68234;SDS011;55052;52.056;5.296;2022-07-29T01:36:40;3.35;;;1.40;;
68234;SDS011;55052;52.056;5.296;2022-07-29T01:39:19;3.58;;;1.65;;
68234;SDS011;55052;52.056;5.296;2022-07-29T01:41:59;5.00;;;1.50;;
68234;SDS011;55052;52.056;5.296;2022-07-29T01:44:35;6.18;;;1.70;;
68234;SDS011;55052;52.056;5.296;2022-07-29T01:47:12;7.30;;;1.63;;
68234;SDS011;55052;52.056;5.296;2022-07-29T01:49:46;5.63;;;1.40;;
68234;SDS011;55052;52.056;5.296;2022-07-29T01:52:25;4.47;;;1.60;;
68234;SDS011;55052;52.056;5.296;2022-07-29T01:54:58;5.15;;;1.60;;
68234;SDS011;55052;52.056;5.296;2022-07-29T01:57:29;2.45;;;1.33;;
68234;SDS011;55052;52.056;5.296;2022-07-29T01:59:59;6.03;;;1.63;;
68234;SDS011;55052;52.056;5.296;2022-07-29T02:02:27;3.30;;;1.42;;
68234;SDS011;55052;52.056;5.296;2022-07-29T02:04:56;3.08;;;1.55;;
68234;SDS011;55052;52.056;5.296;2022-07-29T02:07:24;7.63;;;2.20;;
68234;SDS011;55052;52.056;5.296;2022-07-29T02:09:53;4.93;;;1.58;;
68234;SDS011;55052;52.056;5.296;2022-07-29T02:12:20;4.32;;;1.60;;
68234;SDS011;55052;52.056;5.296;2022-07-29T02:14:51;4.07;;;1.60;;
68234;SDS011;55052;52.056;5.296;2022-07-29T02:19:49;4.78;;;1.60;;
68234;SDS011;55052;52.056;5.296;2022-07-29T02:22:18;3.33;;;1.40;;
68234;SDS011;55052;52.056;5.296;2022-07-29T02:24:46;4.50;;;1.60;;
68234;SDS011;55052;52.056;5.296;2022-07-29T02:27:15;4.80;;;1.50;;
68234;SDS011;55052;52.056;5.296;2022-07-29T02:29:45;6.78;;;2.05;;
68234;SDS011;55052;52.056;5.296;2022-07-29T02:32:13;3.80;;;1.77;;
68234;SDS011;55052;52.056;5.296;2022-07-29T02:34:42;3.88;;;1.63;;
68234;SDS011;55052;52.056;5.296;2022-07-29T02:37:10;3.97;;;1.60;;
68234;SDS011;55052;52.056;5.296;2022-07-29T02:39:39;4.05;;;1.70;;
68234;SDS011;55052;52.056;5.296;2022-07-29T02:42:10;3.03;;;1.42;;
68234;SDS011;55052;52.056;5.296;2022-07-29T02:44:39;5.63;;;1.70;;
68234;SDS011;55052;52.056;5.296;2022-07-29T02:47:12;5.60;;;2.00;;
68234;SDS011;55052;52.056;5.296;2022-07-29T02:52:26;3.85;;;1.77;;
68234;SDS011;55052;52.056;5.296;2022-07-29T02:55:02;5.57;;;1.70;;
68234;SDS011;55052;52.056;5.296;2022-07-29T02:57:54;3.22;;;1.65;;
68234;SDS011;55052;52.056;5.296;2022-07-29T03:00:27;3.35;;;1.75;;
68234;SDS011;55052;52.056;5.296;2022-07-29T03:02:56;6.45;;;1.80;;
68234;SDS011;55052;52.056;5.296;2022-07-29T03:05:25;4.63;;;1.98;;
68234;SDS011;55052;52.056;5.296;2022-07-29T03:07:57;4.28;;;1.65;;
68234;SDS011;55052;52.056;5.296;2022-07-29T03:10:27;5.13;;;1.88;;
68234;SDS011;55052;52.056;5.296;2022-07-29T03:12:55;4.75;;;1.80;;
68234;SDS011;55052;52.056;5.296;2022-07-29T03:15:24;4.57;;;1.75;;
68234;SDS011;55052;52.056;5.296;2022-07-29T03:17:52;6.13;;;1.75;;
68234;SDS011;55052;52.056;5.296;2022-07-29T03:20:20;3.75;;;1.80;;
68234;SDS011;55052;52.056;5.296;2022-07-29T03:22:47;6.00;;;2.20;;
68234;SDS011;55052;52.056;5.296;2022-07-29T03:25:14;7.57;;;1.60;;
68234;SDS011;55052;52.056;5.296;2022-07-29T03:27:42;6.93;;;1.83;;
68234;SDS011;55052;52.056;5.296;2022-07-29T03:30:10;3.35;;;1.90;;
68234;SDS011;55052;52.056;5.296;2022-07-29T03:32:43;3.95;;;1.80;;
68234;SDS011;55052;52.056;5.296;2022-07-29T03:35:10;5.85;;;1.90;;
68234;SDS011;55052;52.056;5.296;2022-07-29T03:37:37;6.97;;;1.92;;
68234;SDS011;55052;52.056;5.296;2022-07-29T03:40:05;7.75;;;1.88;;
68234;SDS011;55052;52.056;5.296;2022-07-29T03:45:03;5.63;;;1.75;;
68234;SDS011;55052;52.056;5.296;2022-07-29T03:47:34;3.40;;;1.80;;
68234;SDS011;55052;52.056;5.296;2022-07-29T03:50:16;3.92;;;1.80;;
68234;SDS011;55052;52.056;5.296;2022-07-29T03:52:45;4.95;;;1.92;;
68234;SDS011;55052;52.056;5.296;2022-07-29T03:55:13;6.28;;;1.90;;
68234;SDS011;55052;52.056;5.296;2022-07-29T03:57:40;4.60;;;1.67;;
68234;SDS011;55052;52.056;5.296;2022-07-29T04:00:08;3.60;;;2.00;;
68234;SDS011;55052;52.056;5.296;2022-07-29T04:02:36;3.38;;;1.70;;
68234;SDS011;55052;52.056;5.296;2022-07-29T04:05:04;6.50;;;2.22;;
68234;SDS011;55052;52.056;5.296;2022-07-29T04:07:37;4.65;;;1.60;;
68234;SDS011;55052;52.056;5.296;2022-07-29T04:10:04;3.38;;;1.60;;
68234;SDS011;55052;52.056;5.296;2022-07-29T04:12:31;6.10;;;1.75;;
68234;SDS011;55052;52.056;5.296;2022-07-29T04:14:58;5.95;;;1.95;;
68234;SDS011;55052;52.056;5.296;2022-07-29T04:17:25;5.03;;;1.50;;
68234;SDS011;55052;52.056;5.296;2022-07-29T04:19:51;4.13;;;1.80;;
68234;SDS011;55052;52.056;5.296;2022-07-29T04:22:18;4.95;;;1.65;;
68234;SDS011;55052;52.056;5.296;2022-07-29T04:24:45;3.83;;;1.65;;
68234;SDS011;55052;52.056;5.296;2022-07-29T04:27:12;4.93;;;1.67;;
68234;SDS011;55052;52.056;5.296;2022-07-29T04:29:39;2.47;;;1.58;;
68234;SDS011;55052;52.056;5.296;2022-07-29T04:32:22;3.90;;;1.65;;
68234;SDS011;55052;52.056;5.296;2022-07-29T04:34:50;3.75;;;1.60;;
68234;SDS011;55052;52.056;5.296;2022-07-29T04:37:17;4.60;;;1.70;;
68234;SDS011;55052;52.056;5.296;2022-07-29T04:39:43;3.25;;;1.60;;
68234;SDS011;55052;52.056;5.296;2022-07-29T04:42:10;4.88;;;1.58;;
68234;SDS011;55052;52.056;5.296;2022-07-29T04:44:38;4.63;;;1.98;;
68234;SDS011;55052;52.056;5.296;2022-07-29T04:47:08;4.38;;;1.60;;
68234;SDS011;55052;52.056;5.296;2022-07-29T04:49:37;5.85;;;1.75;;
68234;SDS011;55052;52.056;5.296;2022-07-29T04:52:05;5.83;;;2.00;;
68234;SDS011;55052;52.056;5.296;2022-07-29T04:54:32;4.72;;;1.90;;
68234;SDS011;55052;52.056;5.296;2022-07-29T04:56:59;3.45;;;1.80;;
68234;SDS011;55052;52.056;5.296;2022-07-29T04:59:26;5.20;;;1.90;;
68234;SDS011;55052;52.056;5.296;2022-07-29T05:01:53;2.90;;;1.60;;
68234;SDS011;55052;52.056;5.296;2022-07-29T05:04:20;3.75;;;1.73;;
68234;SDS011;55052;52.056;5.296;2022-07-29T05:06:47;3.72;;;1.73;;
68234;SDS011;55052;52.056;5.296;2022-07-29T05:09:14;7.28;;;1.75;;
68234;SDS011;55052;52.056;5.296;2022-07-29T05:11:41;4.65;;;1.63;;
68234;SDS011;55052;52.056;5.296;2022-07-29T05:14:07;3.35;;;1.70;;
68234;SDS011;55052;52.056;5.296;2022-07-29T05:16:34;7.22;;;2.00;;
68234;SDS011;55052;52.056;5.296;2022-07-29T05:19:01;4.25;;;2.03;;
68234;SDS011;55052;52.056;5.296;2022-07-29T05:21:28;3.38;;;1.63;;
68234;SDS011;55052;52.056;5.296;2022-07-29T05:23:54;5.75;;;1.92;;
68234;SDS011;55052;52.056;5.296;2022-07-29T05:26:21;3.53;;;1.58;;
68234;SDS011;55052;52.056;5.296;2022-07-29T05:28:48;4.28;;;1.80;;
68234;SDS011;55052;52.056;5.296;2022-07-29T05:31:15;7.78;;;1.80;;
68234;SDS011;55052;52.056;5.296;2022-07-29T05:33:42;5.15;;;1.80;;
68234;SDS011;55052;52.056;5.296;2022-07-29T05:36:08;3.38;;;1.67;;
68234;SDS011;55052;52.056;5.296;2022-07-29T05:38:35;3.53;;;1.70;;
68234;SDS011;55052;52.056;5.296;2022-07-29T05:41:03;5.30;;;1.90;;
68234;SDS011;55052;52.056;5.296;2022-07-29T05:43:31;6.22;;;1.58;;
68234;SDS011;55052;52.056;5.296;2022-07-29T05:45:58;4.22;;;1.60;;
68234;SDS011;55052;52.056;5.296;2022-07-29T05:48:25;6.72;;;1.80;;
68234;SDS011;55052;52.056;5.296;2022-07-29T05:50:51;6.50;;;2.10;;
68234;SDS011;55052;52.056;5.296;2022-07-29T05:53:18;5.07;;;1.60;;
68234;SDS011;55052;52.056;5.296;2022-07-29T05:55:49;4.63;;;1.90;;
68234;SDS011;55052;52.056;5.296;2022-07-29T05:58:16;3.25;;;1.80;;
68234;SDS011;55052;52.056;5.296;2022-07-29T06:00:43;5.97;;;2.05;;
68234;SDS011;55052;52.056;5.296;2022-07-29T06:03:10;6.82;;;1.90;;
68234;SDS011;55052;52.056;5.296;2022-07-29T06:05:37;4.70;;;2.08;;
68234;SDS011;55052;52.056;5.296;2022-07-29T06:08:04;6.47;;;2.15;;
68234;SDS011;55052;52.056;5.296;2022-07-29T06:10:34;3.92;;;1.92;;
68234;SDS011;55052;52.056;5.296;2022-07-29T06:13:01;4.00;;;1.98;;
68234;SDS011;55052;52.056;5.296;2022-07-29T06:15:28;4.05;;;1.90;;
68234;SDS011;55052;52.056;5.296;2022-07-29T06:17:55;5.72;;;1.92;;
68234;SDS011;55052;52.056;5.296;2022-07-29T06:20:25;6.20;;;2.10;;
68234;SDS011;55052;52.056;5.296;2022-07-29T06:22:52;3.85;;;1.92;;
68234;SDS011;55052;52.056;5.296;2022-07-29T06:25:19;5.70;;;2.10;;
68234;SDS011;55052;52.056;5.296;2022-07-29T06:27:46;6.53;;;1.80;;
68234;SDS011;55052;52.056;5.296;2022-07-29T06:30:13;5.30;;;2.05;;
68234;SDS011;55052;52.056;5.296;2022-07-29T06:32:39;4.50;;;2.03;;
68234;SDS011;55052;52.056;5.296;2022-07-29T06:35:08;7.95;;;2.50;;
68234;SDS011;55052;52.056;5.296;2022-07-29T06:37:55;4.82;;;2.10;;
68234;SDS011;55052;52.056;5.296;2022-07-29T06:40:25;6.18;;;2.00;;
68234;SDS011;55052;52.056;5.296;2022-07-29T06:43:11;5.80;;;2.10;;
68234;SDS011;55052;52.056;5.296;2022-07-29T06:45:37;6.50;;;2.33;;
68234;SDS011;55052;52.056;5.296;2022-07-29T06:48:07;4.93;;;2.30;;
68234;SDS011;55052;52.056;5.296;2022-07-29T06:50:35;5.22;;;2.05;;
68234;SDS011;55052;52.056;5.296;2022-07-29T06:53:02;7.00;;;2.65;;
68234;SDS011;55052;52.056;5.296;2022-07-29T06:55:29;4.95;;;2.17;;
68234;SDS011;55052;52.056;5.296;2022-07-29T06:57:55;4.43;;;2.25;;
68234;SDS011;55052;52.056;5.296;2022-07-29T07:00:22;6.30;;;2.75;;
68234;SDS011;55052;52.056;5.296;2022-07-29T07:02:49;7.18;;;2.42;;
68234;SDS011;55052;52.056;5.296;2022-07-29T07:05:16;6.57;;;2.50;;
68234;SDS011;55052;52.056;5.296;2022-07-29T07:07:43;6.40;;;2.90;;
68234;SDS011;55052;52.056;5.296;2022-07-29T07:10:09;7.32;;;2.28;;
68234;SDS011;55052;52.056;5.296;2022-07-29T07:12:36;4.53;;;2.38;;
68234;SDS011;55052;52.056;5.296;2022-07-29T07:15:03;6.20;;;2.60;;
68234;SDS011;55052;52.056;5.296;2022-07-29T07:17:30;5.05;;;2.20;;
68234;SDS011;55052;52.056;5.296;2022-07-29T07:19:57;8.18;;;2.60;;
68234;SDS011;55052;52.056;5.296;2022-07-29T07:22:23;3.38;;;2.00;;
68234;SDS011;55052;52.056;5.296;2022-07-29T07:24:50;7.22;;;2.55;;
68234;SDS011;55052;52.056;5.296;2022-07-29T07:27:17;7.22;;;2.40;;
68234;SDS011;55052;52.056;5.296;2022-07-29T07:29:44;5.47;;;2.40;;
68234;SDS011;55052;52.056;5.296;2022-07-29T07:32:11;4.22;;;2.10;;
68234;SDS011;55052;52.056;5.296;2022-07-29T07:34:39;4.53;;;2.40;;
68234;SDS011;55052;52.056;5.296;2022-07-29T07:37:06;4.53;;;2.03;;
68234;SDS011;55052;52.056;5.296;2022-07-29T07:39:32;4.80;;;2.17;;
68234;SDS011;55052;52.056;5.296;2022-07-29T07:41:59;6.97;;;2.28;;
68234;SDS011;55052;52.056;5.296;2022-07-29T07:44:26;3.85;;;2.05;;
68234;SDS011;55052;52.056;5.296;2022-07-29T07:46:53;6.53;;;2.40;;
68234;SDS011;55052;52.056;5.296;2022-07-29T07:49:20;7.85;;;2.40;;
68234;SDS011;55052;52.056;5.296;2022-07-29T07:51:47;5.75;;;2.17;;
68234;SDS011;55052;52.056;5.296;2022-07-29T07:54:16;8.43;;;2.75;;
68234;SDS011;55052;52.056;5.296;2022-07-29T07:56:46;7.13;;;2.50;;
68234;SDS011;55052;52.056;5.296;2022-07-29T07:59:18;3.92;;;2.20;;
68234;SDS011;55052;52.056;5.296;2022-07-29T08:01:44;6.18;;;2.30;;
68234;SDS011;55052;52.056;5.296;2022-07-29T08:04:20;6.10;;;2.33;;
68234;SDS011;55052;52.056;5.296;2022-07-29T08:06:54;4.15;;;1.98;;
68234;SDS011;55052;52.056;5.296;2022-07-29T08:09:21;3.30;;;2.00;;
68234;SDS011;55052;52.056;5.296;2022-07-29T08:11:56;6.95;;;1.83;;
68234;SDS011;55052;52.056;5.296;2022-07-29T08:14:25;3.58;;;1.90;;
68234;SDS011;55052;52.056;5.296;2022-07-29T08:16:51;5.50;;;2.40;;
68234;SDS011;55052;52.056;5.296;2022-07-29T08:19:18;5.60;;;2.30;;
68234;SDS011;55052;52.056;5.296;2022-07-29T08:21:45;4.53;;;1.88;;
68234;SDS011;55052;52.056;5.296;2022-07-29T08:24:12;5.32;;;2.10;;
68234;SDS011;55052;52.056;5.296;2022-07-29T08:26:57;6.43;;;2.00;;
68234;SDS011;55052;52.056;5.296;2022-07-29T08:29:24;6.47;;;2.20;;
68234;SDS011;55052;52.056;5.296;2022-07-29T08:31:51;5.05;;;2.13;;
68234;SDS011;55052;52.056;5.296;2022-07-29T08:34:18;7.57;;;2.35;;
68234;SDS011;55052;52.056;5.296;2022-07-29T08:36:52;7.28;;;2.10;;
68234;SDS011;55052;52.056;5.296;2022-07-29T08:39:19;8.93;;;2.00;;
68234;SDS011;55052;52.056;5.296;2022-07-29T08:41:46;4.05;;;2.30;;
68234;SDS011;55052;52.056;5.296;2022-07-29T08:44:22;4.18;;;2.10;;
68234;SDS011;55052;52.056;5.296;2022-07-29T08:46:56;5.63;;;2.22;;
68234;SDS011;55052;52.056;5.296;2022-07-29T08:49:23;6.18;;;2.25;;
68234;SDS011;55052;52.056;5.296;2022-07-29T08:51:50;5.25;;;2.17;;
68234;SDS011;55052;52.056;5.296;2022-07-29T08:54:17;4.95;;;1.92;;
68234;SDS011;55052;52.056;5.296;2022-07-29T08:56:48;6.18;;;2.65;;
68234;SDS011;55052;52.056;5.296;2022-07-29T08:59:16;6.07;;;2.13;;
68234;SDS011;55052;52.056;5.296;2022-07-29T09:01:46;5.90;;;2.20;;
68234;SDS011;55052;52.056;5.296;2022-07-29T09:04:14;9.15;;;2.15;;
68234;SDS011;55052;52.056;5.296;2022-07-29T09:06:43;5.30;;;2.10;;
68234;SDS011;55052;52.056;5.296;2022-07-29T09:09:12;5.35;;;2.20;;
68234;SDS011;55052;52.056;5.296;2022-07-29T09:11:40;5.78;;;2.40;;
68234;SDS011;55052;52.056;5.296;2022-07-29T09:14:08;5.65;;;2.03;;
68234;SDS011;55052;52.056;5.296;2022-07-29T09:16:46;4.85;;;1.90;;
68234;SDS011;55052;52.056;5.296;2022-07-29T09:19:32;7.47;;;2.28;;
68234;SDS011;55052;52.056;5.296;2022-07-29T09:22:03;7.32;;;2.15;;
68234;SDS011;55052;52.056;5.296;2022-07-29T09:27:10;5.38;;;2.25;;
68234;SDS011;55052;52.056;5.296;2022-07-29T09:29:45;5.22;;;2.00;;
68234;SDS011;55052;52.056;5.296;2022-07-29T09:32:13;6.95;;;2.22;;
68234;SDS011;55052;52.056;5.296;2022-07-29T09:34:39;5.82;;;2.08;;
68234;SDS011;55052;52.056;5.296;2022-07-29T09:37:06;7.20;;;1.83;;
68234;SDS011;55052;52.056;5.296;2022-07-29T09:39:37;8.50;;;2.08;;
68234;SDS011;55052;52.056;5.296;2022-07-29T09:42:12;3.95;;;1.90;;
68234;SDS011;55052;52.056;5.296;2022-07-29T09:44:43;7.38;;;2.20;;
68234;SDS011;55052;52.056;5.296;2022-07-29T09:47:14;7.95;;;1.90;;
68234;SDS011;55052;52.056;5.296;2022-07-29T09:52:27;4.88;;;2.00;;
68234;SDS011;55052;52.056;5.296;2022-07-29T09:55:04;5.28;;;2.20;;
68234;SDS011;55052;52.056;5.296;2022-07-29T09:57:32;6.32;;;1.80;;
68234;SDS011;55052;52.056;5.296;2022-07-29T10:00:03;5.35;;;2.05;;
68234;SDS011;55052;52.056;5.296;2022-07-29T10:02:35;4.43;;;1.98;;
68234;SDS011;55052;52.056;5.296;2022-07-29T10:05:04;5.43;;;1.90;;
68234;SDS011;55052;52.056;5.296;2022-07-29T10:07:49;4.75;;;1.92;;
68234;SDS011;55052;52.056;5.296;2022-07-29T10:10:23;7.80;;;2.08;;
68234;SDS011;55052;52.056;5.296;2022-07-29T10:15:24;6.03;;;1.80;;
68234;SDS011;55052;52.056;5.296;2022-07-29T10:17:57;5.07;;;1.88;;
68234;SDS011;55052;52.056;5.296;2022-07-29T10:20:25;5.82;;;1.80;;
68234;SDS011;55052;52.056;5.296;2022-07-29T10:22:53;8.70;;;2.10;;
68234;SDS011;55052;52.056;5.296;2022-07-29T10:25:22;3.53;;;1.75;;
68234;SDS011;55052;52.056;5.296;2022-07-29T10:27:50;4.72;;;1.85;;
68234;SDS011;55052;52.056;5.296;2022-07-29T10:30:17;6.57;;;2.00;;
68234;SDS011;55052;52.056;5.296;2022-07-29T10:32:57;6.63;;;2.10;;
68234;SDS011;55052;52.056;5.296;2022-07-29T10:36:03;7.20;;;2.10;;
68234;SDS011;55052;52.056;5.296;2022-07-29T10:44:19;4.13;;;2.05;;
68234;SDS011;55052;52.056;5.296;2022-07-29T10:46:49;8.40;;;2.03;;
68234;SDS011;55052;52.056;5.296;2022-07-29T10:49:20;4.85;;;2.00;;
68234;SDS011;55052;52.056;5.296;2022-07-29T10:54:45;4.43;;;1.80;;
68234;SDS011;55052;52.056;5.296;2022-07-29T10:57:20;4.38;;;1.80;;
68234;SDS011;55052;52.056;5.296;2022-07-29T11:02:42;6.07;;;2.03;;
68234;SDS011;55052;52.056;5.296;2022-07-29T11:10:46;4.28;;;2.10;;
68234;SDS011;55052;52.056;5.296;2022-07-29T11:13:50;5.90;;;1.70;;
68234;SDS011;55052;52.056;5.296;2022-07-29T11:16:11;4.90;;;1.60;;
68234;SDS011;55052;52.056;5.296;2022-07-29T11:21:43;5.07;;;2.03;;
68234;SDS011;55052;52.056;5.296;2022-07-29T11:24:27;7.57;;;1.80;;
68234;SDS011;55052;52.056;5.296;2022-07-29T11:29:48;7.57;;;1.80;;
68234;SDS011;55052;52.056;5.296;2022-07-29T11:32:16;6.60;;;1.80;;
68234;SDS011;55052;52.056;5.296;2022-07-29T11:34:49;8.95;;;2.40;;
68234;SDS011;55052;52.056;5.296;2022-07-29T11:37:43;4.47;;;1.85;;
68234;SDS011;55052;52.056;5.296;2022-07-29T11:40:21;9.02;;;2.65;;
68234;SDS011;55052;52.056;5.296;2022-07-29T11:42:48;5.22;;;2.10;;
68234;SDS011;55052;52.056;5.296;2022-07-29T11:45:45;9.40;;;2.67;;
68234;SDS011;55052;52.056;5.296;2022-07-29T11:48:16;7.95;;;2.00;;
68234;SDS011;55052;52.056;5.296;2022-07-29T11:50:55;4.50;;;2.00;;
68234;SDS011;55052;52.056;5.296;2022-07-29T11:53:23;6.28;;;2.38;;
68234;SDS011;55052;52.056;5.296;2022-07-29T11:55:54;7.82;;;2.05;;
68234;SDS011;55052;52.056;5.296;2022-07-29T11:58:24;5.75;;;2.00;;
68234;SDS011;55052;52.056;5.296;2022-07-29T12:00:52;6.70;;;2.00;;
68234;SDS011;55052;52.056;5.296;2022-07-29T12:03:25;7.28;;;1.92;;
68234;SDS011;55052;52.056;5.296;2022-07-29T12:06:02;5.65;;;2.47;;
68234;SDS011;55052;52.056;5.296;2022-07-29T12:08:41;6.68;;;2.55;;
68234;SDS011;55052;52.056;5.296;2022-07-29T12:11:18;6.78;;;2.47;;
68234;SDS011;55052;52.056;5.296;2022-07-29T12:13:49;4.78;;;2.25;;
68234;SDS011;55052;52.056;5.296;2022-07-29T12:16:17;5.97;;;2.60;;
68234;SDS011;55052;52.056;5.296;2022-07-29T12:18:58;7.97;;;2.60;;
68234;SDS011;55052;52.056;5.296;2022-07-29T12:21:27;7.75;;;2.85;;
68234;SDS011;55052;52.056;5.296;2022-07-29T12:23:56;7.22;;;2.75;;
68234;SDS011;55052;52.056;5.296;2022-07-29T12:26:31;8.20;;;2.50;;
68234;SDS011;55052;52.056;5.296;2022-07-29T12:29:00;5.88;;;2.47;;
68234;SDS011;55052;52.056;5.296;2022-07-29T12:31:28;6.82;;;2.50;;
68234;SDS011;55052;52.056;5.296;2022-07-29T12:34:11;8.85;;;2.67;;
68234;SDS011;55052;52.056;5.296;2022-07-29T12:36:41;5.07;;;2.40;;
68234;SDS011;55052;52.056;5.296;2022-07-29T12:39:10;5.45;;;2.70;;
68234;SDS011;55052;52.056;5.296;2022-07-29T12:41:37;10.93;;;2.85;;
68234;SDS011;55052;52.056;5.296;2022-07-29T12:44:05;8.48;;;2.60;;
68234;SDS011;55052;52.056;5.296;2022-07-29T12:46:31;7.05;;;2.45;;
68234;SDS011;55052;52.056;5.296;2022-07-29T12:48:58;7.43;;;2.80;;
68234;SDS011;55052;52.056;5.296;2022-07-29T12:54:10;9.02;;;2.53;;
68234;SDS011;55052;52.056;5.296;2022-07-29T12:56:42;5.40;;;2.47;;
68234;SDS011;55052;52.056;5.296;2022-07-29T12:59:20;5.57;;;2.57;;
68234;SDS011;55052;52.056;5.296;2022-07-29T13:01:49;7.55;;;2.33;;
68234;SDS011;55052;52.056;5.296;2022-07-29T13:04:28;5.50;;;2.35;;
68234;SDS011;55052;52.056;5.296;2022-07-29T13:07:03;5.22;;;2.05;;
68234;SDS011;55052;52.056;5.296;2022-07-29T13:09:42;8.40;;;2.40;;
68234;SDS011;55052;52.056;5.296;2022-07-29T13:12:12;6.70;;;2.35;;
68234;SDS011;55052;52.056;5.296;2022-07-29T13:14:40;5.53;;;2.10;;
68234;SDS011;55052;52.056;5.296;2022-07-29T13:17:13;6.25;;;2.25;;
68234;SDS011;55052;52.056;5.296;2022-07-29T13:22:17;5.22;;;2.30;;
68234;SDS011;55052;52.056;5.296;2022-07-29T13:24:49;6.68;;;2.10;;
68234;SDS011;55052;52.056;5.296;2022-07-29T13:27:20;4.90;;;2.28;;
68234;SDS011;55052;52.056;5.296;2022-07-29T13:29:49;5.60;;;2.00;;
68234;SDS011;55052;52.056;5.296;2022-07-29T13:32:17;5.30;;;2.05;;
68234;SDS011;55052;52.056;5.296;2022-07-29T13:34:57;5.05;;;2.20;;
68234;SDS011;55052;52.056;5.296;2022-07-29T13:37:26;7.97;;;2.22;;
68234;SDS011;55052;52.056;5.296;2022-07-29T13:39:56;10.43;;;2.65;;
68234;SDS011;55052;52.056;5.296;2022-07-29T13:42:23;6.50;;;2.15;;
68234;SDS011;55052;52.056;5.296;2022-07-29T13:44:51;5.65;;;2.47;;
68234;SDS011;55052;52.056;5.296;2022-07-29T13:47:21;6.82;;;2.30;;
68234;SDS011;55052;52.056;5.296;2022-07-29T13:52:25;7.28;;;2.05;;
68234;SDS011;55052;52.056;5.296;2022-07-29T13:54:51;8.25;;;1.92;;
68234;SDS011;55052;52.056;5.296;2022-07-29T13:57:18;7.13;;;1.75;;
68234;SDS011;55052;52.056;5.296;2022-07-29T13:59:45;4.30;;;2.03;;
68234;SDS011;55052;52.056;5.296;2022-07-29T14:02:18;4.82;;;2.00;;
68234;SDS011;55052;52.056;5.296;2022-07-29T14:04:45;4.68;;;1.80;;
68234;SDS011;55052;52.056;5.296;2022-07-29T14:07:12;8.98;;;2.72;;
68234;SDS011;55052;52.056;5.296;2022-07-29T14:09:41;10.53;;;2.87;;
68234;SDS011;55052;52.056;5.296;2022-07-29T14:12:08;6.78;;;2.00;;
68234;SDS011;55052;52.056;5.296;2022-07-29T14:14:35;4.47;;;1.70;;
68234;SDS011;55052;52.056;5.296;2022-07-29T14:17:03;6.72;;;2.13;;
68234;SDS011;55052;52.056;5.296;2022-07-29T14:19:32;6.05;;;2.20;;
68234;SDS011;55052;52.056;5.296;2022-07-29T14:22:04;7.05;;;1.73;;
68234;SDS011;55052;52.056;5.296;2022-07-29T14:24:33;5.35;;;1.80;;
68234;SDS011;55052;52.056;5.296;2022-07-29T14:27:02;4.75;;;1.75;;
68234;SDS011;55052;52.056;5.296;2022-07-29T14:29:30;8.13;;;2.03;;
68234;SDS011;55052;52.056;5.296;2022-07-29T14:32:03;6.00;;;1.80;;
68234;SDS011;55052;52.056;5.296;2022-07-29T14:34:34;4.68;;;1.73;;
68234;SDS011;55052;52.056;5.296;2022-07-29T14:37:01;5.43;;;1.73;;
68234;SDS011;55052;52.056;5.296;2022-07-29T14:39:28;5.07;;;1.63;;
68234;SDS011;55052;52.056;5.296;2022-07-29T14:41:57;7.35;;;1.83;;
68234;SDS011;55052;52.056;5.296;2022-07-29T14:44:25;6.05;;;2.00;;
68234;SDS011;55052;52.056;5.296;2022-07-29T14:46:57;5.55;;;1.90;;
68234;SDS011;55052;52.056;5.296;2022-07-29T14:49:28;7.47;;;2.00;;
68234;SDS011;55052;52.056;5.296;2022-07-29T14:51:55;4.93;;;1.67;;
68234;SDS011;55052;52.056;5.296;2022-07-29T14:54:22;5.00;;;1.77;;
68234;SDS011;55052;52.056;5.296;2022-07-29T14:56:49;4.90;;;1.73;;
68234;SDS011;55052;52.056;5.296;2022-07-29T14:59:16;6.93;;;2.20;;
68234;SDS011;55052;52.056;5.296;2022-07-29T15:01:43;2.97;;;1.63;;
68234;SDS011;55052;52.056;5.296;2022-07-29T15:04:10;6.53;;;2.03;;
68234;SDS011;55052;52.056;5.296;2022-07-29T15:06:37;5.50;;;1.70;;
68234;SDS011;55052;52.056;5.296;2022-07-29T15:09:04;4.10;;;1.70;;
68234;SDS011;55052;52.056;5.296;2022-07-29T15:11:31;5.68;;;1.77;;
68234;SDS011;55052;52.056;5.296;2022-07-29T15:14:03;5.25;;;1.92;;
68234;SDS011;55052;52.056;5.296;2022-07-29T15:16:31;7.45;;;1.80;;
68234;SDS011;55052;52.056;5.296;2022-07-29T15:18:59;5.75;;;1.90;;
68234;SDS011;55052;52.056;5.296;2022-07-29T15:21:26;3.47;;;1.67;;
68234;SDS011;55052;52.056;5.296;2022-07-29T15:23:53;4.53;;;1.75;;
68234;SDS011;55052;52.056;5.296;2022-07-29T15:26:20;7.00;;;1.85;;
68234;SDS011;55052;52.056;5.296;2022-07-29T15:28:47;5.65;;;1.55;;
68234;SDS011;55052;52.056;5.296;2022-07-29T15:31:14;4.75;;;1.92;;
68234;SDS011;55052;52.056;5.296;2022-07-29T15:33:41;4.35;;;1.60;;
68234;SDS011;55052;52.056;5.296;2022-07-29T15:36:08;4.93;;;1.70;;
68234;SDS011;55052;52.056;5.296;2022-07-29T15:38:34;7.72;;;1.80;;
68234;SDS011;55052;52.056;5.296;2022-07-29T15:41:07;4.10;;;1.58;;
68234;SDS011;55052;52.056;5.296;2022-07-29T15:43:34;4.00;;;1.52;;
68234;SDS011;55052;52.056;5.296;2022-07-29T15:46:01;6.97;;;1.90;;
68234;SDS011;55052;52.056;5.296;2022-07-29T15:48:46;5.68;;;1.85;;
68234;SDS011;55052;52.056;5.296;2022-07-29T15:51:13;6.10;;;1.90;;
68234;SDS011;55052;52.056;5.296;2022-07-29T15:53:40;5.95;;;1.90;;
68234;SDS011;55052;52.056;5.296;2022-07-29T15:56:07;5.55;;;2.00;;
68234;SDS011;55052;52.056;5.296;2022-07-29T15:58:34;5.00;;;1.85;;